Andrews, Texas
Current Conditions -  °F | °C
As of 8:15 AM on Friday 28 Nov 2014 (Local Time) from KE11 Reporting Station
Clear Clear  
Wind Chill: 37°   Ceiling: Unl
Heat Index: 42°   Visibility: 10mi
Dew Point: 33°   Wind: 8mph
Humidity: 72%   Direction: 220°SW
Pressure: 30.18"   Gusts: NA
Location:  32.32°N, 102.54°W
Report Text: KE11 281415Z AUTO 22007KT 10SM CLR 06/01 A3018 RMK AO2 T00550008
Loading
Personal Weather Stations






























Interactive Weather Map New forecast layout! Learn more

10-Day Weather Forecast

Advertisements
Track Severe Weather on mobile